Map

Track Data

SID SEASON NUMBER BASIN SUBBASIN NAME ISO_TIME NATURE LAT LON WMO_WIND WMO_PRES WMO_AGENCY TRACK_TYPE DIST2LAND LANDFALL IFLAG USA_AGENCY USA_ATCF_ID USA_LAT USA_LON USA_RECORD USA_STATUS USA_WIND USA_PRES USA_SSHS USA_R34_NE USA_R34_SE USA_R34_SW USA_R34_NW USA_R50_NE USA_R50_SE USA_R50_SW USA_R50_NW USA_R64_NE USA_R64_SE USA_R64_SW USA_R64_NW USA_POCI USA_ROCI USA_RMW USA_EYE TOKYO_LAT TOKYO_LON TOKYO_GRADE TOKYO_WIND TOKYO_PRES TOKYO_R50_DIR TOKYO_R50_LONG TOKYO_R50_SHORT TOKYO_R30_DIR TOKYO_R30_LONG TOKYO_R30_SHORT TOKYO_LAND CMA_LAT CMA_LON CMA_CAT CMA_WIND CMA_PRES HKO_LAT HKO_LON HKO_CAT HKO_WIND HKO_PRES NEWDELHI_LAT NEWDELHI_LON NEWDELHI_GRADE NEWDELHI_WIND NEWDELHI_PRES NEWDELHI_CI NEWDELHI_DP NEWDELHI_POCI REUNION_LAT REUNION_LON REUNION_TYPE REUNION_WIND REUNION_PRES REUNION_TNUM REUNION_CI REUNION_RMW REUNION_R34_NE REUNION_R34_SE REUNION_R34_SW REUNION_R34_NW REUNION_R50_NE REUNION_R50_SE REUNION_R50_SW REUNION_R50_NW REUNION_R64_NE REUNION_R64_SE REUNION_R64_SW REUNION_R64_NW BOM_LAT BOM_LON BOM_TYPE BOM_WIND BOM_PRES BOM_TNUM BOM_CI BOM_RMW BOM_R34_NE BOM_R34_SE BOM_R34_SW BOM_R34_NW BOM_R50_NE BOM_R50_SE BOM_R50_SW BOM_R50_NW BOM_R64_NE BOM_R64_SE BOM_R64_SW BOM_R64_NW BOM_ROCI BOM_POCI BOM_EYE BOM_POS_METHOD BOM_PRES_METHOD NADI_LAT NADI_LON NADI_CAT NADI_WIND NADI_PRES WELLINGTON_LAT WELLINGTON_LON WELLINGTON_WIND WELLINGTON_PRES DS824_LAT DS824_LON DS824_STAGE DS824_WIND DS824_PRES TD9636_LAT TD9636_LON TD9636_STAGE TD9636_WIND TD9636_PRES TD9635_LAT TD9635_LON TD9635_WIND TD9635_PRES TD9635_ROCI NEUMANN_LAT NEUMANN_LON NEUMANN_CLASS NEUMANN_WIND NEUMANN_PRES MLC_LAT MLC_LON MLC_CLASS MLC_WIND MLC_PRES USA_GUST BOM_GUST BOM_GUST_PER REUNION_GUST REUNION_GUST_PER USA_SEAHGT USA_SEARAD_NE USA_SEARAD_SE USA_SEARAD_SW USA_SEARAD_NW STORM_SPEED STORM_DIR
1892324N13129 1892 60 WP MM NOT_NAMED 1892-11-19 04:00:00 NR 13.2000 128.800 main 375 364 __________O___ -1 13.2000 128.800 7 4 306
1892324N13129 1892 60 WP MM NOT_NAMED 1892-11-19 06:00:00 NR 13.2704 128.701 main 368 352 __________P___ -1 13.2704 128.701 7 4 306
1892324N13129 1892 60 WP MM NOT_NAMED 1892-11-19 09:00:00 NR 13.3808 128.545 main 352 346 __________P___ -1 13.3808 128.545 7 4 306
1892324N13129 1892 60 WP MM NOT_NAMED 1892-11-19 12:00:00 NR 13.5037 128.373 main 346 332 __________P___ -1 13.5037 128.373 7 4 306
1892324N13129 1892 60 WP MM NOT_NAMED 1892-11-19 15:00:00 NR 13.6466 128.174 main 332 328 __________P___ -1 13.6466 128.174 7 5 306
1892324N13129 1892 60 WP MM NOT_NAMED 1892-11-19 16:00:00 NR 13.7000 128.100 main 328 315 __________O___ -1 13.7000 128.100 7 6 307
1892324N13129 1892 60 WP MM NOT_NAMED 1892-11-19 18:00:00 NR 13.8158 127.940 main 315 312 __________P___ -1 13.8158 127.940 7 6 306
1892324N13129 1892 60 WP MM NOT_NAMED 1892-11-19 21:00:00 NR 14.0023 127.674 main 312 303 __________P___ -1 14.0023 127.674 7 7 305
1892324N13129 1892 60 WP MM NOT_NAMED 1892-11-20 00:00:00 NR 14.1874 127.389 main 303 287 __________P___ -1 14.1874 127.389 7 7 302
1892324N13129 1892 60 WP MM NOT_NAMED 1892-11-20 03:00:00 NR 14.3526 127.097 main 295 286 __________P___ -1 14.3526 127.097 7 7 299
1892324N13129 1892 60 WP MM NOT_NAMED 1892-11-20 04:00:00 NR 14.4000 127.000 main 286 267 __________O___ -1 14.4000 127.000 3 6 292
1892324N13129 1892 60 WP MM NOT_NAMED 1892-11-20 06:00:00 NR 14.4649 126.814 main 267 236 __________P___ -1 14.4649 126.814 3 6 287
1892324N13129 1892 60 WP MM NOT_NAMED 1892-11-20 09:00:00 NR 14.5369 126.535 main 236 219 __________P___ -1 14.5369 126.535 3 6 284
1892324N13129 1892 60 WP MM NOT_NAMED 1892-11-20 12:00:00 NR 14.5980 126.258 main 219 194 __________P___ -1 14.5980 126.258 3 5 284
1892324N13129 1892 60 WP MM NOT_NAMED 1892-11-20 15:00:00 NR 14.6698 125.988 main 194 184 __________P___ -1 14.6698 125.988 3 5 286
1892324N13129 1892 60 WP MM NOT_NAMED 1892-11-20 16:00:00 NR 14.7000 125.900 main 184 172 __________O___ -1 14.7000 125.900 4 5 291
1892324N13129 1892 60 WP MM NOT_NAMED 1892-11-20 18:00:00 NR 14.7644 125.733 main 172 163 __________P___ -1 14.7644 125.733 4 5 294
1892324N13129 1892 60 WP MM NOT_NAMED 1892-11-20 21:00:00 NR 14.8795 125.488 main 163 148 __________P___ -1 14.8795 125.488 4 5 299
1892324N13129 1892 60 WP MM NOT_NAMED 1892-11-21 00:00:00 NR 15.0282 125.243 main 148 148 __________P___ -1 15.0282 125.243 4 6 305
1892324N13129 1892 60 WP MM NOT_NAMED 1892-11-21 03:00:00 NR 15.2228 124.989 main 154 154 __________P___ -1 15.2228 124.989 4 6 309
1892324N13129 1892 60 WP MM NOT_NAMED 1892-11-21 04:00:00 NR 15.3000 124.900 main 159 159 __________O___ -1 15.3000 124.900 4 8 310
1892324N13129 1892 60 WP MM NOT_NAMED 1892-11-21 06:00:00 NR 15.4663 124.693 main 173 170 __________P___ -1 15.4663 124.693 4 8 312
1892324N13129 1892 60 WP MM NOT_NAMED 1892-11-21 09:00:00 NR 15.7598 124.370 main 201 192 __________P___ -1 15.7598 124.370 4 9 316
1892324N13129 1892 60 WP MM NOT_NAMED 1892-11-21 12:00:00 NR 16.0973 124.056 main 192 145 __________P___ -1 16.0973 124.056 4 9 321
1892324N13129 1892 60 WP MM NOT_NAMED 1892-11-21 15:00:00 NR 16.4697 123.779 main 145 132 __________P___ -1 16.4697 123.779 4 9 326
1892324N13129 1892 60 WP MM NOT_NAMED 1892-11-21 16:00:00 NR 16.6000 123.700 main 132 117 __________O___ -1 16.6000 123.700 4 7 326
1892324N13129 1892 60 WP MM NOT_NAMED 1892-11-21 18:00:00 NR 16.7767 123.563 main 117 95 __________P___ -1 16.7767 123.563 4 7 329
1892324N13129 1892 60 WP MM NOT_NAMED 1892-11-21 21:00:00 NR 17.0651 123.402 main 96 87 __________P___ -1 17.0651 123.402 4 7 339
1892324N13129 1892 60 WP MM NOT_NAMED 1892-11-22 00:00:00 NR 17.4592 123.289 main 98 95 __________P___ -1 17.4592 123.289 4 10 350
1892324N13129 1892 60 WP MM NOT_NAMED 1892-11-22 03:00:00 NR 18.0463 123.216 main 100 95 __________P___ -1 18.0463 123.216 4 13 354
1892324N13129 1892 60 WP MM NOT_NAMED 1892-11-22 04:00:00 NR 18.3000 123.200 main 95 90 __________O___ -1 18.3000 123.200 4 19 353
1892324N13129 1892 60 WP MM NOT_NAMED 1892-11-22 06:00:00 NR 18.9675 123.102 main 107 107 __________P___ -1 18.9675 123.102 4 23 354
1892324N13129 1892 60 WP MM NOT_NAMED 1892-11-22 09:00:00 NR 20.1716 122.983 main 214 214 __________P___ -1 20.1716 122.983 4 25 357
1892324N13129 1892 60 WP MM NOT_NAMED 1892-11-22 12:00:00 NR 21.4943 122.960 main 221 177 __________P___ -1 21.4943 122.960 4 26 3
1892324N13129 1892 60 WP MM NOT_NAMED 1892-11-22 15:00:00 NR 22.7954 123.103 main 177 174 __________P___ -1 22.7954 123.103 4 26 7
1892324N13129 1892 60 WP MM NOT_NAMED 1892-11-22 16:00:00 NR 23.2000 123.200 main 182 171 __________O___ -1 23.2000 123.200 4 24 17
1892324N13129 1892 60 WP MM NOT_NAMED 1892-11-22 18:00:00 NR 23.9441 123.479 main 175 168 __________P___ -1 23.9441 123.479 4 23 25
1892324N13129 1892 60 WP MM NOT_NAMED 1892-11-22 21:00:00 NR 24.9196 124.079 main 211 211 __________P___ -1 24.9196 124.079 4 22 34
1892324N13129 1892 60 WP MM NOT_NAMED 1892-11-23 00:00:00 NR 25.7710 124.841 main 294 304 __________P___ -1 25.7710 124.841 4 22 42
1892324N13129 1892 60 WP MM NOT_NAMED 1892-11-23 03:00:00 NR 26.5485 125.702 main 406 420 __________P___ -1 26.5485 125.702 4 22 45
1892324N13129 1892 60 WP MM NOT_NAMED 1892-11-23 04:00:00 NR 26.8000 126.000 main 447 __________O___ -1 26.8000 126.000 4 22 46

Digital Typhoon Data and Search

About IBTrACS Database

This database is a web-friendly format of International Best Track Archive for Climate Stewardship (IBTrACS), a global best track data archive curated by NOAA dating back to 1842.

Updated: 2021-10-21